• Join FlightAware (Why Join?)
  • Login
  • US Flag 
05:30PM EDT


 

Airport Tracker/Info


-or-


 

Live Flight TrackerFlight Track Log ✈ DLA1865 ✈ 19-Apr-2013 ✈ LIMC / MXP - EDDM / MUC

Flight Track Log - Related Links

Times and Time Zones

All times are in EDT time to prevent confusion due to time zone crossing. See the DLA1865 flight status page for this flight to view local times or setup timezone preferences in your user account.

Time Position Orientation Groundspeed Altitude Reporting Facility
EDT Latitude Longitude Course Direction KTS MPH feet Rate Location/Type
03:37PM 46.1363 9.2663 36° Northeast  Level Estimated
03:38PM 46.1923 9.3267 37° Northeast  Level Estimated
03:39PM 46.2483 9.3873 37° Northeast  Level Estimated
03:40PM 46.3043 9.4479 37° Northeast  Level Estimated
03:41PM 46.3602 9.5087 37° Northeast  Level Estimated
03:42PM 46.4161 9.5696 37° Northeast  Level Estimated
03:43PM 46.4720 9.6306 37° Northeast  Level Estimated
03:44PM 46.5278 9.6918 37° Northeast  Level Estimated
03:45PM 46.5836 9.7531 37° Northeast  Level Estimated
03:46PM 46.6394 9.8145 37° Northeast  Level Estimated
03:47PM 46.6951 9.8760 37° Northeast  Level Estimated
03:48PM 46.7509 9.9377 37° Northeast  Level Estimated
03:49PM 46.8065 9.9995 37° Northeast  Level Estimated
03:50PM 46.8622 10.0614 37° Northeast  Level Estimated
03:51PM 46.9178 10.1234 37° Northeast  Level Estimated
03:52PM 46.9733 10.1856 37° Northeast  Level Estimated
03:53PM 47.0289 10.2479 37° Northeast  Level Estimated
03:54PM 47.0844 10.3103 37° Northeast  Level Estimated
03:55PM 47.1399 10.3729 37° Northeast  Level Estimated
03:56PM 47.1953 10.4356 38° Northeast  Level Estimated
03:57PM 47.2507 10.4984 38° Northeast  Level Estimated
03:58PM 47.3061 10.5614 38° Northeast  Level Estimated
03:59PM 47.3614 10.6244 38° Northeast  Level Estimated
04:00PM 47.4167 10.6877 38° Northeast  Level Estimated
04:01PM 47.4720 10.7510 38° Northeast  Level Estimated
04:02PM 47.5272 10.8145 38° Northeast  Level Estimated
04:03PM 47.5886 10.8854 38° Northeast  Level Estimated
04:04PM 47.6501 10.9564 38° Northeast  Level Estimated
04:05PM 47.7114 11.0276 38° Northeast  Level Estimated
04:06PM 47.7728 11.0990 38° Northeast  Level Estimated
04:07PM 47.8341 11.1705 38° Northeast  Level Estimated
04:08PM 47.8953 11.2422 38° Northeast  Level Estimated
04:09PM 47.9565 11.3140 38° Northeast  Level Estimated
04:10PM 48.0177 11.3861 38° Northeast  Level Estimated
04:11PM 48.0788 11.4583 38° Northeast  Level Estimated
04:12PM 48.1398 11.5307 38° Northeast  Level Estimated
04:13PM 48.2008 11.6032 38° Northeast  Level Estimated
04:14PM 48.2618 11.6760 38° Northeast  Level Estimated
04:15PM 48.3227 11.7488 38° Northeast  Level Estimated
04:16PM 48.3538 11.7861 39° Northeast  Level Estimated
04:17PM 48.3538 11.7861 318° Northwest  Level Estimated
04:18PM 48.3538 11.7861 318° Northwest  Level Estimated
04:19PM 48.3538 11.7861 318° Northwest  Level Estimated
04:20PM 48.3538 11.7861 318° Northwest  Level Estimated
04:21PM 48.3538 11.7861 318° Northwest  Level Estimated
04:22PM 48.3538 11.7861 318° Northwest  Level Estimated
04:23PM 48.3538 11.7861 318° Northwest  Level Estimated
04:24PM 48.3538 11.7861 318° Northwest  Level Estimated
04:25PM 48.3538 11.7861 318° Northwest  Level Estimated
04:26PM 48.3538 11.7861 318° Northwest  Level Estimated
04:27PM 48.3538 11.7861 318° Northwest  Level Estimated
04:28PM 48.3538 11.7861 318° Northwest  Level Estimated